createdAt,value
2023-07-07T00:00:29.683Z,2.60
2023-07-07T00:02:57.362Z,2.80
2023-07-07T00:05:26.329Z,3.17
2023-07-07T00:07:53.996Z,2.83
2023-07-07T00:10:21.685Z,2.60
2023-07-07T00:12:49.258Z,2.55
2023-07-07T00:15:16.958Z,2.70
2023-07-07T00:17:44.669Z,2.80
2023-07-07T00:20:14.895Z,2.70
2023-07-07T00:22:45.049Z,2.70
2023-07-07T00:25:12.700Z,2.63
2023-07-07T00:27:40.273Z,2.80
2023-07-07T00:30:09.268Z,3.45
2023-07-07T00:32:36.857Z,2.92
2023-07-07T00:35:04.722Z,2.72
2023-07-07T00:37:32.237Z,2.65
2023-07-07T00:40:01.130Z,2.70
2023-07-07T00:42:28.612Z,2.83
2023-07-07T00:45:21.330Z,3.00
2023-07-07T00:47:56.580Z,2.80
2023-07-07T00:50:28.706Z,2.55
2023-07-07T00:52:56.207Z,2.92
2023-07-07T00:55:30.326Z,2.88
2023-07-07T00:57:58.084Z,2.83
2023-07-07T01:00:25.669Z,2.97
2023-07-07T01:02:57.223Z,2.80
2023-07-07T01:05:28.896Z,3.25
2023-07-07T01:08:01.765Z,2.92
2023-07-07T01:10:30.973Z,2.63
2023-07-07T01:12:58.614Z,2.50
2023-07-07T01:15:29.299Z,3.00
2023-07-07T01:18:11.393Z,3.00
2023-07-07T01:20:46.842Z,2.78
2023-07-07T01:23:48.254Z,2.65
2023-07-07T01:26:27.370Z,2.70
2023-07-07T01:29:16.026Z,2.80
2023-07-07T01:31:48.997Z,3.30
2023-07-07T01:34:18.467Z,2.95
2023-07-07T01:36:45.954Z,3.30
2023-07-07T01:39:14.587Z,3.00
2023-07-07T01:41:49.945Z,2.90
2023-07-07T01:44:23.095Z,3.30
2023-07-07T01:46:57.779Z,2.90
2023-07-07T01:49:32.991Z,2.72
2023-07-07T01:52:05.976Z,3.00
2023-07-07T01:54:36.632Z,3.00
2023-07-07T01:57:04.963Z,2.90
2023-07-07T01:59:33.987Z,3.33
2023-07-07T02:02:03.811Z,3.00
2023-07-07T02:04:31.434Z,2.90
2023-07-07T02:06:58.947Z,3.35
2023-07-07T02:09:26.813Z,3.10
2023-07-07T02:11:54.469Z,2.95
2023-07-07T02:14:22.032Z,3.00
2023-07-07T02:16:51.064Z,3.00
2023-07-07T02:19:19.929Z,2.90
2023-07-07T02:21:47.541Z,2.83
2023-07-07T02:24:15.055Z,2.90
2023-07-07T02:26:42.874Z,3.45
2023-07-07T02:29:10.462Z,3.05
2023-07-07T02:31:38.168Z,3.20
2023-07-07T02:34:05.722Z,3.10
2023-07-07T02:36:37.693Z,2.95
2023-07-07T02:39:05.402Z,2.97
2023-07-07T02:41:32.966Z,3.35
2023-07-07T02:44:00.715Z,3.10
2023-07-07T02:46:28.328Z,2.90
2023-07-07T02:48:55.832Z,3.05
2023-07-07T02:51:23.316Z,3.13
2023-07-07T02:53:52.142Z,3.45
2023-07-07T02:56:19.889Z,3.08
2023-07-07T02:58:47.345Z,3.92
2023-07-07T03:01:17.720Z,3.00
2023-07-07T03:03:47.440Z,2.65
2023-07-07T03:06:17.956Z,3.60
2023-07-07T03:08:45.924Z,3.53
2023-07-07T03:11:16.943Z,3.72
2023-07-07T03:13:47.060Z,3.47
2023-07-07T03:16:22.088Z,4.28
2023-07-07T03:18:51.796Z,3.75
2023-07-07T03:21:20.109Z,4.15
2023-07-07T03:23:47.894Z,3.72
2023-07-07T03:26:18.574Z,3.78
2023-07-07T03:28:46.466Z,4.00
2023-07-07T03:31:17.487Z,3.80
2023-07-07T03:33:46.706Z,3.75
2023-07-07T03:36:15.082Z,3.75
2023-07-07T03:38:43.996Z,3.50
2023-07-07T03:41:14.996Z,3.58
2023-07-07T03:43:46.343Z,3.67
2023-07-07T03:46:14.585Z,3.40
2023-07-07T03:48:42.591Z,4.10
2023-07-07T03:51:10.547Z,3.90
2023-07-07T03:53:38.485Z,3.97
2023-07-07T03:56:07.297Z,4.00
2023-07-07T03:58:34.928Z,3.78
2023-07-07T04:01:04.845Z,4.03
2023-07-07T04:03:32.905Z,3.50
2023-07-07T04:06:01.432Z,4.00
2023-07-07T04:08:29.037Z,4.07
2023-07-07T04:11:01.078Z,3.63
2023-07-07T04:13:29.374Z,3.90
2023-07-07T04:16:01.061Z,4.32
2023-07-07T04:18:32.468Z,4.25
2023-07-07T04:21:01.213Z,3.90
2023-07-07T04:23:29.249Z,4.53
2023-07-07T04:25:57.107Z,4.00
2023-07-07T04:28:24.604Z,3.88
2023-07-07T04:30:53.444Z,4.95
2023-07-07T04:33:21.065Z,4.47
2023-07-07T04:35:54.005Z,4.75
2023-07-07T04:38:21.908Z,4.45
2023-07-07T04:40:49.853Z,4.28
2023-07-07T04:43:17.393Z,4.32
2023-07-07T04:45:46.582Z,3.90
2023-07-07T04:48:14.083Z,3.88
2023-07-07T04:50:41.580Z,3.95
2023-07-07T04:53:10.382Z,4.47
2023-07-07T04:55:44.111Z,4.35
2023-07-07T04:58:11.603Z,4.13
2023-07-07T05:00:39.094Z,3.95
2023-07-07T05:03:06.571Z,3.85
2023-07-07T05:05:37.588Z,4.18
2023-07-07T05:08:05.503Z,3.80
2023-07-07T05:10:34.314Z,3.75
2023-07-07T05:13:01.810Z,4.00
2023-07-07T05:15:29.303Z,4.57
2023-07-07T05:17:59.365Z,4.13
2023-07-07T05:20:27.937Z,4.13
2023-07-07T05:22:55.458Z,4.30
2023-07-07T05:25:22.979Z,3.67
2023-07-07T05:27:51.866Z,4.68
2023-07-07T05:30:19.382Z,4.30
2023-07-07T05:32:46.953Z,3.42
2023-07-07T05:35:14.505Z,3.53
2023-07-07T05:37:42.318Z,3.17
2023-07-07T05:40:12.668Z,3.58
2023-07-07T05:42:41.803Z,3.10
2023-07-07T05:45:11.768Z,3.42
2023-07-07T05:47:39.363Z,3.25
2023-07-07T05:50:08.313Z,3.60
2023-07-07T05:52:35.853Z,3.05
2023-07-07T05:55:04.654Z,3.60
2023-07-07T05:57:32.278Z,3.40
2023-07-07T06:00:00.028Z,2.80
2023-07-07T06:02:28.897Z,2.90
2023-07-07T06:04:56.428Z,2.90
2023-07-07T06:07:24.049Z,3.10
2023-07-07T06:09:58.789Z,2.97
2023-07-07T06:12:26.359Z,3.25
2023-07-07T06:14:54.038Z,3.03
2023-07-07T06:17:21.610Z,3.20
2023-07-07T06:19:50.422Z,3.25
2023-07-07T06:22:17.922Z,2.90
2023-07-07T06:24:45.401Z,3.10
2023-07-07T06:27:12.847Z,3.30
2023-07-07T06:29:40.569Z,2.97
2023-07-07T06:32:09.481Z,2.90
2023-07-07T06:34:36.985Z,2.92
2023-07-07T06:37:06.634Z,3.00
2023-07-07T06:39:34.188Z,3.05
2023-07-07T06:42:03.185Z,3.30
2023-07-07T06:44:30.677Z,3.22
2023-07-07T06:46:58.233Z,3.00
2023-07-07T06:49:25.702Z,2.60
2023-07-07T06:51:53.256Z,2.58
2023-07-07T06:54:22.112Z,2.92
2023-07-07T06:56:49.599Z,3.08
2023-07-07T06:59:17.049Z,3.00
2023-07-07T07:01:44.858Z,2.97
2023-07-07T07:04:12.381Z,2.70
2023-07-07T07:06:42.797Z,2.83
2023-07-07T07:09:10.284Z,2.83
2023-07-07T07:11:39.347Z,3.13
2023-07-07T07:14:06.864Z,3.58
2023-07-07T07:16:34.488Z,3.22
2023-07-07T07:19:01.976Z,3.45
2023-07-07T07:21:29.514Z,3.00
2023-07-07T07:23:57.025Z,2.80
2023-07-07T07:26:24.593Z,2.88
2023-07-07T07:28:54.005Z,2.75
2023-07-07T07:31:21.601Z,3.25
2023-07-07T07:33:53.180Z,3.00
2023-07-07T07:36:20.851Z,3.35
2023-07-07T07:38:48.462Z,2.90
2023-07-07T07:41:16.444Z,2.72
2023-07-07T07:43:43.965Z,2.65
2023-07-07T07:46:12.866Z,2.80
2023-07-07T07:48:40.440Z,2.78
2023-07-07T07:51:24.011Z,2.88
2023-07-07T07:53:55.499Z,2.90
2023-07-07T07:56:23.019Z,2.90
2023-07-07T07:58:50.524Z,2.72
2023-07-07T08:01:19.454Z,2.88
2023-07-07T08:03:47.009Z,2.63
2023-07-07T08:06:14.530Z,2.80
2023-07-07T08:08:42.160Z,2.60
2023-07-07T08:11:18.748Z,2.50
2023-07-07T08:13:46.706Z,2.42
2023-07-07T08:16:15.195Z,2.40
2023-07-07T08:18:44.102Z,2.15
2023-07-07T08:21:11.669Z,2.38
2023-07-07T08:23:39.170Z,2.60
2023-07-07T08:28:48.374Z,2.63
2023-07-07T08:31:16.512Z,2.47
2023-07-07T08:33:56.102Z,3.00
2023-07-07T08:36:27.231Z,2.60
2023-07-07T08:38:54.784Z,2.30
2023-07-07T08:41:22.320Z,2.40
2023-07-07T08:43:50.057Z,2.47
2023-07-07T08:46:25.038Z,2.50
2023-07-07T08:49:02.127Z,2.40
2023-07-07T08:51:34.593Z,2.67
2023-07-07T08:54:13.648Z,2.55
2023-07-07T08:56:46.993Z,2.10
2023-07-07T08:59:23.676Z,2.35
2023-07-07T09:01:58.544Z,2.85
2023-07-07T09:04:35.572Z,2.58
2023-07-07T09:07:32.008Z,2.55
2023-07-07T09:10:12.803Z,2.42
2023-07-07T09:12:46.899Z,2.40
2023-07-07T09:15:17.357Z,2.47
2023-07-07T09:17:48.928Z,2.30
2023-07-07T09:20:20.204Z,2.63
2023-07-07T09:22:50.834Z,2.35
2023-07-07T09:25:23.834Z,2.40
2023-07-07T09:27:59.037Z,2.40
2023-07-07T09:32:57.210Z,2.42
2023-07-07T09:35:32.676Z,2.20
2023-07-07T09:38:23.027Z,2.58
2023-07-07T09:41:00.130Z,2.42
2023-07-07T09:43:45.518Z,2.70
2023-07-07T09:46:28.302Z,2.72
2023-07-07T09:49:03.513Z,2.15
2023-07-07T09:51:44.250Z,2.60
2023-07-07T09:54:14.328Z,2.40
2023-07-07T09:56:49.049Z,2.58
2023-07-07T09:59:21.414Z,2.35
2023-07-07T10:01:52.813Z,2.55
2023-07-07T10:04:22.178Z,2.42
2023-07-07T10:06:55.469Z,2.63
2023-07-07T10:09:23.017Z,2.40
2023-07-07T10:14:23.828Z,2.50
2023-07-07T10:17:01.839Z,2.50
2023-07-07T10:19:29.548Z,2.35
2023-07-07T10:21:58.360Z,2.55
2023-07-07T10:24:25.941Z,2.10
2023-07-07T10:26:54.128Z,2.40
2023-07-07T10:29:24.503Z,2.40
2023-07-07T10:31:53.496Z,2.30
2023-07-07T10:34:29.432Z,2.30
2023-07-07T10:36:59.246Z,2.42
2023-07-07T10:39:28.420Z,2.30
2023-07-07T10:41:56.113Z,2.67
2023-07-07T10:44:25.800Z,2.28
2023-07-07T10:46:53.321Z,2.47
2023-07-07T10:49:25.438Z,2.47
2023-07-07T10:52:11.472Z,2.65
2023-07-07T10:54:49.033Z,2.35
2023-07-07T10:57:30.399Z,2.47
2023-07-07T11:00:14.377Z,2.38
2023-07-07T11:03:04.890Z,2.38
2023-07-07T11:05:54.893Z,2.40
2023-07-07T11:08:41.434Z,2.80
2023-07-07T11:11:24.349Z,2.42
2023-07-07T11:14:21.177Z,2.55
2023-07-07T11:17:03.364Z,2.60
2023-07-07T11:19:45.465Z,2.30
2023-07-07T11:22:23.165Z,2.72
2023-07-07T11:25:00.433Z,2.08
2023-07-07T11:27:43.933Z,2.08
2023-07-07T11:30:22.701Z,2.22
2023-07-07T11:33:03.892Z,2.50
2023-07-07T11:35:48.275Z,2.70
2023-07-07T11:38:28.480Z,2.50
2023-07-07T11:41:01.213Z,2.22
2023-07-07T11:43:53.463Z,2.20
2023-07-07T11:46:39.659Z,2.30
2023-07-07T11:49:24.568Z,2.30
2023-07-07T11:52:00.322Z,2.50
2023-07-07T11:54:58.407Z,2.50
2023-07-07T11:57:45.067Z,2.40
2023-07-07T12:00:31.966Z,2.10
2023-07-07T12:03:16.401Z,2.33
2023-07-07T12:05:45.714Z,2.40
2023-07-07T12:08:17.030Z,2.40
2023-07-07T12:10:48.800Z,2.33
2023-07-07T12:13:24.192Z,2.40
2023-07-07T12:15:57.014Z,2.05
2023-07-07T12:18:30.105Z,2.40
2023-07-07T12:21:05.372Z,2.60
2023-07-07T12:23:38.783Z,2.20
2023-07-07T12:26:16.039Z,2.72
2023-07-07T12:28:50.106Z,2.35
2023-07-07T12:31:19.163Z,2.60
2023-07-07T12:33:52.157Z,2.47
2023-07-07T12:36:22.198Z,2.40
2023-07-07T12:38:51.939Z,2.60
2023-07-07T12:41:23.802Z,2.10
2023-07-07T12:43:54.696Z,2.50
2023-07-07T12:46:27.224Z,2.67
2023-07-07T12:48:57.464Z,2.40
2023-07-07T12:51:30.493Z,2.60
2023-07-07T12:53:58.442Z,2.40
2023-07-07T12:56:28.248Z,2.30
2023-07-07T12:58:58.597Z,2.30
2023-07-07T13:01:35.211Z,2.13
2023-07-07T13:04:11.933Z,2.05
2023-07-07T13:06:42.563Z,2.13
2023-07-07T13:09:24.219Z,2.42
2023-07-07T13:11:54.132Z,2.00
2023-07-07T13:14:44.179Z,2.22
2023-07-07T13:17:14.430Z,2.30
2023-07-07T13:19:49.240Z,2.00
2023-07-07T13:22:22.689Z,2.20
2023-07-07T13:24:50.241Z,2.60
2023-07-07T13:27:22.678Z,2.40
2023-07-07T13:29:57.321Z,2.20
2023-07-07T13:32:33.004Z,2.47
2023-07-07T13:35:02.305Z,2.28
2023-07-07T13:37:31.528Z,2.22
2023-07-07T13:39:59.449Z,2.15
2023-07-07T13:42:29.314Z,2.53
2023-07-07T13:45:00.084Z,2.30
2023-07-07T13:47:29.439Z,2.10
2023-07-07T13:49:59.459Z,2.53
2023-07-07T13:52:30.050Z,2.10
2023-07-07T13:54:58.096Z,2.40
2023-07-07T13:57:29.017Z,2.60
2023-07-07T13:59:57.806Z,2.63
2023-07-07T14:02:26.764Z,2.53
2023-07-07T14:05:00.922Z,2.22
2023-07-07T14:07:28.690Z,2.40
2023-07-07T14:09:56.254Z,2.35
2023-07-07T14:12:27.217Z,2.10
2023-07-07T14:14:56.770Z,2.10
2023-07-07T14:17:30.452Z,2.20
2023-07-07T14:20:03.429Z,2.25
2023-07-07T14:22:33.547Z,2.40
2023-07-07T14:25:01.406Z,2.70
2023-07-07T14:27:30.749Z,2.30
2023-07-07T14:29:58.519Z,2.30
2023-07-07T14:32:35.491Z,2.63
2023-07-07T14:35:13.509Z,2.38
2023-07-07T14:37:50.065Z,2.45
2023-07-07T14:40:31.387Z,2.38
2023-07-07T14:43:00.585Z,2.30
2023-07-07T14:45:32.730Z,2.60
2023-07-07T14:48:03.731Z,2.35
2023-07-07T14:50:32.665Z,2.30
2023-07-07T14:53:01.044Z,2.33
2023-07-07T14:55:31.204Z,2.92
2023-07-07T14:58:00.237Z,2.50
2023-07-07T15:00:33.805Z,2.60
2023-07-07T15:03:02.662Z,3.00
2023-07-07T15:05:32.547Z,3.80
2023-07-07T15:08:08.610Z,2.45
2023-07-07T15:10:38.434Z,3.13
2023-07-07T15:13:06.303Z,3.28
2023-07-07T15:15:34.204Z,2.40
2023-07-07T15:18:03.051Z,2.28
2023-07-07T15:20:30.613Z,2.47
2023-07-07T15:22:58.130Z,2.22
2023-07-07T15:25:25.703Z,2.60
2023-07-07T15:27:53.160Z,2.75
2023-07-07T15:30:20.917Z,2.50
2023-07-07T15:32:48.451Z,2.03
2023-07-07T15:35:19.720Z,2.28
2023-07-07T15:37:49.343Z,2.20
2023-07-07T15:40:19.684Z,2.70
2023-07-07T15:42:48.846Z,2.80
2023-07-07T15:45:16.332Z,2.17
2023-07-07T15:47:45.803Z,2.47
2023-07-07T15:50:15.780Z,2.38
2023-07-07T15:52:44.608Z,2.25
2023-07-07T15:55:12.849Z,2.50
2023-07-07T15:57:40.691Z,2.30
2023-07-07T16:00:26.310Z,2.58
2023-07-07T16:02:53.849Z,2.40
2023-07-07T16:05:21.717Z,2.38
2023-07-07T16:07:50.861Z,2.40
2023-07-07T16:10:18.342Z,2.53
2023-07-07T16:12:46.914Z,2.40
2023-07-07T16:15:14.438Z,2.28
2023-07-07T16:17:41.979Z,2.30
2023-07-07T16:20:19.526Z,2.70
2023-07-07T16:22:47.782Z,2.45
2023-07-07T16:25:17.120Z,2.35
2023-07-07T16:27:45.104Z,2.28
2023-07-07T16:30:17.356Z,2.47
2023-07-07T16:32:45.045Z,2.38
2023-07-07T16:35:13.996Z,2.10
2023-07-07T16:37:41.718Z,2.20
2023-07-07T16:40:23.527Z,2.38
2023-07-07T16:42:51.675Z,2.28
2023-07-07T16:45:20.147Z,2.22
2023-07-07T16:47:48.767Z,2.60
2023-07-07T16:50:23.040Z,2.45
2023-07-07T16:52:50.712Z,2.70
2023-07-07T16:55:18.844Z,2.30
2023-07-07T16:57:47.686Z,2.33
2023-07-07T17:00:18.065Z,2.30
2023-07-07T17:02:46.362Z,2.45
2023-07-07T17:05:15.841Z,2.50
2023-07-07T17:07:43.554Z,2.60
2023-07-07T17:10:23.062Z,2.55
2023-07-07T17:12:51.902Z,2.83
2023-07-07T17:15:19.442Z,3.00
2023-07-07T17:17:46.967Z,2.55
2023-07-07T17:20:17.955Z,2.92
2023-07-07T17:22:48.672Z,2.47
2023-07-07T17:25:17.853Z,2.45
2023-07-07T17:27:46.716Z,2.83
2023-07-07T17:30:26.447Z,2.58
2023-07-07T17:32:54.833Z,2.60
2023-07-07T17:35:24.106Z,2.88
2023-07-07T17:37:51.964Z,2.60
2023-07-07T17:40:21.679Z,2.53
2023-07-07T17:42:50.787Z,2.50
2023-07-07T17:45:19.288Z,2.67
2023-07-07T17:47:48.176Z,2.60
2023-07-07T17:50:19.783Z,2.97
2023-07-07T17:52:47.495Z,2.42
2023-07-07T17:55:16.526Z,2.78
2023-07-07T17:57:45.719Z,2.70
2023-07-07T18:00:21.592Z,4.40
2023-07-07T18:02:51.104Z,3.80
2023-07-07T18:05:19.653Z,3.70
2023-07-07T18:07:47.574Z,3.67
2023-07-07T18:10:17.836Z,3.58
2023-07-07T18:12:45.400Z,3.00
2023-07-07T18:15:13.291Z,2.60
2023-07-07T18:17:49.929Z,2.38
2023-07-07T18:21:17.778Z,2.75
2023-07-07T18:23:22.824Z,2.70
2023-07-07T18:25:50.500Z,2.65
2023-07-07T18:28:17.985Z,2.53
2023-07-07T18:30:49.269Z,2.70
2023-07-07T18:33:17.306Z,2.70
2023-07-07T18:35:46.373Z,7.25
2023-07-07T18:38:15.501Z,4.18
2023-07-07T18:40:43.044Z,12.57
2023-07-07T18:43:10.802Z,5.20
2023-07-07T18:45:38.670Z,3.38
2023-07-07T18:48:14.548Z,2.70
2023-07-07T18:50:43.474Z,3.55
2023-07-07T18:53:13.999Z,2.60
2023-07-07T18:55:47.361Z,3.03
2023-07-07T18:58:14.841Z,3.08
2023-07-07T19:00:44.042Z,2.85
2023-07-07T19:03:12.566Z,2.70
2023-07-07T19:05:40.695Z,7.45
2023-07-07T19:08:13.238Z,7.65
2023-07-07T19:10:43.354Z,9.35
2023-07-07T19:13:13.006Z,5.70
2023-07-07T19:15:40.819Z,2.78
2023-07-07T19:18:18.926Z,2.70
2023-07-07T19:20:46.406Z,2.53
2023-07-07T19:23:15.522Z,2.65
2023-07-07T19:25:43.157Z,2.50
2023-07-07T19:28:17.660Z,2.50
2023-07-07T19:30:45.421Z,2.40
2023-07-07T19:33:18.316Z,2.42
2023-07-07T19:35:46.158Z,2.83
2023-07-07T19:38:21.811Z,2.53
2023-07-07T19:40:52.246Z,3.78
2023-07-07T19:43:19.869Z,7.40
2023-07-07T19:45:53.693Z,9.88
2023-07-07T19:48:21.614Z,3.75
2023-07-07T19:50:53.508Z,3.40
2023-07-07T19:53:22.761Z,2.92
2023-07-07T19:55:52.567Z,2.88
2023-07-07T19:58:21.520Z,2.70
2023-07-07T20:00:49.208Z,2.53
2023-07-07T20:03:16.997Z,2.33
2023-07-07T20:05:44.538Z,2.85
2023-07-07T20:08:15.118Z,2.60
2023-07-07T20:10:44.969Z,3.17
2023-07-07T20:13:12.898Z,2.80
2023-07-07T20:15:41.215Z,2.78
2023-07-07T20:18:14.143Z,2.80
2023-07-07T20:20:41.946Z,2.42
2023-07-07T20:23:11.590Z,2.72
2023-07-07T20:25:39.196Z,2.80
2023-07-07T20:28:10.420Z,2.50
2023-07-07T20:30:37.949Z,2.67
2023-07-07T20:33:11.581Z,2.60
2023-07-07T20:35:39.051Z,2.60
2023-07-07T20:38:11.869Z,2.78
2023-07-07T20:40:42.147Z,2.90
2023-07-07T20:43:10.985Z,2.63
2023-07-07T20:45:38.952Z,2.53
2023-07-07T20:48:12.440Z,2.58
2023-07-07T20:50:42.962Z,2.90
2023-07-07T20:53:11.242Z,2.60
2023-07-07T20:55:38.697Z,2.72
2023-07-07T20:58:11.665Z,2.50
2023-07-07T21:00:44.063Z,2.78
2023-07-07T21:03:11.591Z,3.08
2023-07-07T21:05:39.850Z,2.97
2023-07-07T21:08:14.334Z,2.72
2023-07-07T21:13:11.195Z,2.85
2023-07-07T21:15:38.969Z,2.80
2023-07-07T21:18:06.883Z,2.80
2023-07-07T21:20:38.266Z,2.70
2023-07-07T21:23:08.022Z,3.13
2023-07-07T21:25:36.108Z,3.20
2023-07-07T21:28:04.596Z,3.00
2023-07-07T21:30:33.374Z,3.15
2023-07-07T21:33:01.048Z,3.22
2023-07-07T21:35:28.560Z,3.10
2023-07-07T21:37:56.078Z,2.63
2023-07-07T21:40:24.807Z,2.70
2023-07-07T21:42:52.316Z,3.10
2023-07-07T21:45:23.407Z,2.95
2023-07-07T21:47:57.339Z,2.88
2023-07-07T21:50:26.618Z,2.78
2023-07-07T21:52:55.846Z,3.30
2023-07-07T21:55:24.926Z,2.97
2023-07-07T21:57:54.749Z,3.10
2023-07-07T22:00:24.567Z,3.25
2023-07-07T22:02:55.925Z,2.80
2023-07-07T22:05:26.864Z,3.17
2023-07-07T22:07:54.807Z,2.83
2023-07-07T22:10:33.347Z,3.30
2023-07-07T22:13:00.789Z,3.30
2023-07-07T22:15:28.386Z,3.65
2023-07-07T22:17:57.486Z,3.05
2023-07-07T22:20:37.819Z,3.50
2023-07-07T22:23:07.178Z,3.50
2023-07-07T22:25:36.723Z,3.38
2023-07-07T22:28:11.410Z,3.28
2023-07-07T22:33:13.583Z,3.42
2023-07-07T22:35:41.348Z,3.97
2023-07-07T22:38:16.271Z,3.72
2023-07-07T22:40:45.280Z,4.40
2023-07-07T22:43:13.913Z,3.75
2023-07-07T22:45:41.621Z,3.63
2023-07-07T22:48:16.603Z,3.50
2023-07-07T22:50:45.461Z,3.50
2023-07-07T22:53:14.948Z,3.70
2023-07-07T22:55:45.959Z,2.92
2023-07-07T22:58:15.226Z,3.05
2023-07-07T23:00:43.321Z,3.17
2023-07-07T23:03:11.517Z,3.80
2023-07-07T23:05:43.043Z,3.30
2023-07-07T23:08:16.718Z,3.75
2023-07-07T23:10:44.211Z,3.30
2023-07-07T23:13:11.728Z,3.35
2023-07-07T23:15:39.600Z,3.63
2023-07-07T23:18:10.644Z,3.25
2023-07-07T23:20:38.749Z,3.35
2023-07-07T23:23:08.438Z,3.22
2023-07-07T23:25:36.122Z,3.45
2023-07-07T23:28:10.696Z,3.88
2023-07-07T23:30:42.862Z,3.45
2023-07-07T23:33:13.360Z,3.20
2023-07-07T23:35:44.008Z,3.90
2023-07-07T23:38:14.316Z,3.38
2023-07-07T23:40:42.283Z,3.65
2023-07-07T23:43:10.598Z,3.13
2023-07-07T23:45:39.017Z,3.53
2023-07-07T23:48:11.014Z,3.65
2023-07-07T23:50:48.906Z,3.38
2023-07-07T23:53:18.376Z,3.60
2023-07-07T23:55:46.500Z,3.50
2023-07-07T23:58:17.052Z,3.42
